Detall de PIREP

Printer-friendly versionPDF version

[2010/08/04 08:08:00]
Flight IATA:CT1004
Pilot Number:042
Company ICAO:CAT
Aircraft Type:B744/E
PAX:340
Departing Airport: LECO
Destination Airport: LEPA
Alternate Airport:LEBL
Online: VATSIM
Route:FORNO UN733 ZMR UL155 KALMA UH100 CJN UN733 GATOS
Flight Level:FL340
No Slew and time accel
No pause
Crash detect
Detect pilot in Cockpit between each 30 and 45 minutes
08:08 Zero fuel Weight: 466688 Lbs, Fuel Weight: 162793 Lbs
08:08 VATSIM:LECO 040738Z 36004KT 330V090 4000 -DZ BKN004 BKN012 19/18 Q1021
08:08 VATSIM:LEPA 040730Z VRB01KT 9999 FEW030 SCT060 25/19 Q1015 NOSIG
08:08 VOICE CATALONIAN/SUMMER CHARTER
08:14 Parking Brakes off
08:25 Take-off
08:25 Take off Weight: 625832 Lbs
08:25 Wind: 022 @ 004 Knots Heading: 030
08:25 POS N43 18 22 W008 22 25
08:25 Flaps:4 at 188 Knots
08:25 Gear Up: 189 Knots
08:25 Flaps:3 at 185 Knots
08:25 Flaps:2 at 180 Knots

08:26 Flaps:1 at 204 Knots
08:27 Flaps:0 at 238 Knots
08:40 Wind:320@026 Knots Heading: 123 Ground Speed: 397 Knots Altitude 32736 ft
08:47 TOC
08:47 Fuel Weight: 143460 Lb
08:55 Wind:310@033 Knots Heading: 138 Ground Speed: 529 Knots Altitude 34189 ft
09:10 Wind:275@019 Knots Heading: 120 Ground Speed: 514 Knots Altitude 34133 ft
09:25 Wind:264@016 Knots Heading: 090 Ground Speed: 515 Knots Altitude 34025 ft
09:33 TOD
09:33 Fuel Weight: 126041 Lb
09:40 Wind:313@023 Knots Heading: 052 Ground Speed: 393 Knots Altitude 17454 ft
09:46 Flaps:1 at 235 Knots
09:46 Flaps:3 at 233 Knots
09:46 Flaps:4 at 184 Knots
09:48 Flaps:5 at 159 Knots
09:48 Gear Down: 159 Knots
09:52 TouchDown:Rate -380 ft/min Speed: 155 Knots
09:52 VATSIM:LEPA 040930Z 22011KT 9999 FEW026 BKN048 27/19 Q1015 NOSIG
09:52 Land
09:52 Wind:222@011 Knots
09:52 Heading: 237
09:52 Fligh
t Duration: 01:27
09:52 Landing Weight: 587790 Lbs
09:52 POS N39 33 20 E002 43 42
09:54 Parking brakes on
09:54 Block to Block Duration: 01:41
09:54 Final Fuel: 120390 Lbls
09:54 Spent Fuel: 42403 Lbls
09:54 Flight Length: 643 NM
09:54 TOD Land Length: 99 NM

Exportar CSV

Powered by Drupal - Modified by Danger4k